Data for 01/01/2018

Time Sea-Level Adjusted Pressure Absolute Pressure Temperature Relative Humidity Dew Point   
(mb) (inHg) (mb) (inHg) (C) (F) (%) (C) (F)
00:05 1023 30.21 852 25.16 -13 8.7 77 -16.2 2.8
00:10 1023 30.21 852 25.16 -13 8.6 77 -16.2 2.8
00:15 1023 30.21 852 25.16 -12.9 8.8 79 -15.8 3.5
00:20 1023 30.21 853 25.19 -12.6 9.4 78 -15.7 3.8
00:25 1023 30.21 852 25.16 -12.3 9.9 78 -15.4 4.3
00:30 1023 30.21 852 25.16 -12 10.4 75 -15.5 4.1
00:35 1023 30.21 852 25.16 -12 10.5 75 -15.5 4
00:40 1023 30.21 852 25.16 -12.2 10.1 75 -15.8 3.5
00:45 1023 30.21 852 25.16 -12.3 9.8 78 -15.5 4.2
00:50 1023 30.21 852 25.16 -11.8 10.7 77 -15.1 4.8
00:55 1023 30.21 852 25.16 -11 12.2 73 -14.9 5.2
01:00 1023 30.21 852 25.16 -10.9 12.3 74 -14.6 5.7
01:05 1023 30.21 852 25.16 -10.6 12.9 73 -14.6 5.7
01:10 1023 30.21 852 25.16 -10.4 13.3 73 -14.4 6.1
01:15 1023 30.21 852 25.16 -10 13.9 71 -14.4 6.1
01:20 1023 30.21 852 25.16 -9.9 14.2 71 -14.2 6.5
01:25 1023 30.21 852 25.16 -9.8 14.4 71 -14.1 6.6
01:30 1023 30.21 852 25.16 -9.6 14.8 70 -14 6.7
01:35 1023 30.21 852 25.16 -9.3 15.3 69 -14 6.8
01:40 1023 30.21 852 25.16 -9.2 15.5 69 -13.9 7
01:45 1023 30.21 852 25.16 -9 15.7 69 -13.8 7.1
01:50 1023 30.21 852 25.16 -9.1 15.6 69 -13.8 7.2
01:55 1023 30.21 852 25.16 -9.4 15.2 70 -13.9 6.9
02:00 1023 30.21 852 25.16 -9.7 14.6 70 -14.2 6.4
02:05 1023 30.21 852 25.16 -10.1 13.9 72 -14.2 6.4
02:10 1023 30.21 852 25.16 -10.2 13.6 73 -14.3 6.3
02:15 1023 30.21 852 25.16 -10.3 13.5 73 -14.3 6.3
02:20 1023 30.21 852 25.16 -10.5 13 74 -14.3 6.2
02:25 1023 30.21 852 25.16 -10.7 12.8 75 -14.3 6.2
02:30 1023 30.21 852 25.16 -10.8 12.6 75 -14.4 6
02:35 1023 30.21 852 25.16 -10.9 12.4 75 -14.6 5.8
02:40 1023 30.21 852 25.16 -11.1 12 75 -14.6 5.6
02:45 1023 30.21 852 25.16 -11.2 11.9 76 -14.6 5.7
02:50 1023 30.21 852 25.16 -11.1 12.1 77 -14.4 6.1
02:55 1023 30.21 852 25.16 -11.1 12 77 -14.4 6.2
03:00 1023 30.21 852 25.16 -11.2 11.8 78 -14.3 6.3
03:05 1023 30.21 852 25.16 -11.3 11.7 78 -14.4 6.1
03:10 1023 30.21 852 25.16 -11.4 11.5 78 -14.5 6
03:15 1023 30.21 852 25.16 -11.2 11.8 82 -13.8 7.2
03:20 1023 30.21 852 25.16 -10.5 13.1 77 -13.8 7.2
03:25 1023 30.21 852 25.16 -9.9 14.1 74 -13.7 7.4
03:30 1023 30.21 852 25.16 -9.7 14.6 74 -13.5 7.6
03:35 1023 30.21 852 25.16 -9.4 15.1 72 -13.5 7.6
03:40 1023 30.21 852 25.16 -9.2 15.4 71 -13.5 7.6
03:45 1023 30.21 852 25.16 -9.1 15.7 70 -13.5 7.7
03:50 1023 30.21 852 25.16 -8.9 16 70 -13.5 7.8
03:55 1023 30.21 852 25.16 -8.9 16 71 -13.3 8.1
04:00 1023 30.21 852 25.16 -9 15.8 71 -13.4 7.9
04:05 1023 30.21 852 25.16 -9 15.8 72 -13.2 8.3
04:10 1023 30.21 852 25.16 -8.9 16 71 -13.3 8.1
04:15 1023 30.21 852 25.16 -9.3 15.3 73 -13.3 8.1
04:20 1023 30.21 852 25.16 -9.1 15.6 74 -13 8.7
04:25 1023 30.21 852 25.16 -9 15.8 72 -13.2 8.3
04:30 1023 30.21 852 25.16 -9.2 15.5 71 -13.5 7.7
04:35 1023 30.21 852 25.16 -9.6 14.7 72 -13.8 7.2
04:40 1023 30.21 852 25.16 -10.2 13.6 75 -13.9 7.1
04:45 1023 30.21 852 25.16 -10.7 12.7 76 -14.1 6.6
04:50 1023 30.21 852 25.16 -11.1 12 81 -13.8 7.1
04:55 1023 30.21 852 25.16 -11.4 11.5 81 -14 6.9
05:00 1023 30.21 852 25.16 -11.5 11.3 82 -14 6.7
05:05 1023 30.21 852 25.16 -11.6 11.1 84 -13.9 7.1
05:10 1023 30.21 852 25.16 -11 12.3 86 -12.9 8.8
05:15 1023 30.21 852 25.16 -10.5 13 83 -12.9 8.7
05:20 1023 30.21 852 25.16 -10.6 13 83 -12.9 8.7
05:25 1023 30.21 852 25.16 -10.9 12.5 82 -13.4 7.9
05:30 1023 30.21 852 25.16 -11 12.2 82 -13.5 7.7
05:35 1023 30.21 852 25.16 -10.9 12.4 82 -13.5 7.8
05:40 1023 30.21 852 25.16 -10.5 13.1 78 -13.6 7.5
05:45 1023 30.21 852 25.16 -10.4 13.4 78 -13.6 7.6
05:50 1023 30.21 852 25.16 -10.2 13.6 76 -13.7 7.3
05:55 1023 30.21 852 25.16 -10 14 75 -13.7 7.3
06:00 1023 30.21 852 25.16 -10 14.1 74 -13.8 7.2
06:05 1023 30.21 852 25.16 -10.1 13.8 73 -14 6.8
06:10 1023 30.21 852 25.16 -10.2 13.7 74 -14 6.7
06:15 1023 30.21 852 25.16 -10.2 13.6 73 -14.1 6.6
06:20 1023 30.21 852 25.16 -10.2 13.6 74 -14 6.8
06:25 1023 30.21 852 25.16 -10.3 13.5 74 -14.1 6.5
06:30 1023 30.21 852 25.16 -10.6 13 75 -14.2 6.5
06:35 1023 30.21 852 25.16 -10.5 13.2 74 -14.3 6.3
06:40 1023 30.21 852 25.16 -10.2 13.7 73 -14.2 6.4
06:45 1023 30.21 852 25.16 -9.8 14.3 70 -14.4 6.1
06:50 1023 30.21 852 25.16 -9.5 14.8 68 -14.4 6.1
06:55 1023 30.21 852 25.16 -9.8 14.4 70 -14.3 6.3
07:00 1023 30.21 852 25.16 -10.2 13.6 72 -14.4 6
07:05 1023 30.21 852 25.16 -10.5 13.2 72 -14.6 5.8
07:10 1023 30.21 852 25.16 -10.6 12.8 71 -14.9 5.3
07:15 1023 30.21 852 25.16 -10.7 12.8 71 -15 5.1
07:20 1023 30.21 852 25.16 -10.4 13.2 71 -14.8 5.4
07:25 1023 30.21 852 25.16 -10.2 13.7 69 -14.8 5.4
07:30 1023 30.21 853 25.19 -9.9 14.1 68 -14.8 5.3
07:35 1023 30.21 853 25.19 -10.2 13.7 68 -14.9 5.1
07:40 1024 30.24 853 25.19 -10.2 13.7 68 -14.9 5.2
07:45 1024 30.24 853 25.19 -9.8 14.3 67 -14.8 5.3
07:50 1024 30.24 853 25.19 -9.9 14.2 68 -14.7 5.6
07:55 1024 30.24 853 25.19 -9.9 14.1 68 -14.7 5.5
08:00 1024 30.24 853 25.19 -9.5 15 66 -14.7 5.5
08:05 1024 30.24 853 25.19 -9.1 15.6 68 -14 6.8
08:10 1024 30.24 853 25.19 -9.1 15.6 65 -14.6 5.8
08:15 1024 30.24 853 25.19 -8.9 15.9 63 -14.7 5.6
08:20 1024 30.24 853 25.19 -9 15.8 64 -14.7 5.5
08:25 1024 30.24 854 25.22 -9.3 15.4 64 -14.8 5.3
08:30 1024 30.24 854 25.22 -8.9 15.9 63 -14.7 5.6
08:35 1024 30.24 854 25.22 -9 15.9 63 -14.9 5.2
08:40 1025 30.27 854 25.22 -9.1 15.6 64 -14.8 5.4
08:45 1025 30.27 854 25.22 -9.1 15.6 64 -14.8 5.3
08:50 1025 30.27 854 25.22 -8.9 15.9 65 -14.5 6
08:55 1025 30.27 854 25.22 -9 15.8 64 -14.7 5.6
09:00 1025 30.27 854 25.22 -8.8 16.1 64 -14.5 5.9
09:05 1025 30.27 854 25.22 -8.7 16.3 64 -14.4 6.1
09:10 1025 30.27 854 25.22 -8.7 16.4 63 -14.4 6
09:15 1025 30.27 854 25.22 -8.3 17.1 63 -14.2 6.4
09:20 1025 30.27 854 25.22 -7.6 18.3 60 -14.2 6.5
09:25 1025 30.27 854 25.22 -6.8 19.8 57 -14 6.8
09:30 1025 30.27 854 25.22 -6.4 20.5 59 -13.2 8.3
09:35 1025 30.27 854 25.22 -6 21.2 56 -13.4 7.9
09:40 1025 30.27 854 25.22 -5.4 22.2 53 -13.5 7.6
09:45 1025 30.27 854 25.22 -4.8 23.4 51 -13.5 7.8
09:50 1025 30.27 854 25.22 -4.1 24.6 49 -13.3 8.1
09:55 1025 30.27 854 25.22 -4.1 24.6 49 -13.3 8.1
10:00 1025 30.27 854 25.22 -4.1 24.6 49 -13.2 8.2
10:05 1025 30.27 854 25.22 -4 24.9 49 -13.2 8.2
10:10 1025 30.27 854 25.22 -3.9 25 48 -13.3 8
10:15 1025 30.27 854 25.22 -4.1 24.7 47 -13.7 7.4
10:20 1025 30.27 854 25.22 -4.3 24.3 48 -13.9 7
10:25 1025 30.27 854 25.22 -4.9 23.2 49 -14 6.8
10:30 1025 30.27 854 25.22 -5.3 22.4 50 -14.2 6.5
10:35 1025 30.27 854 25.22 -5.3 22.5 49 -14.3 6.3
10:40 1025 30.27 854 25.22 -5.4 22.3 50 -14.2 6.5
10:45 1025 30.27 854 25.22 -5.6 21.9 52 -14 6.9
10:50 1025 30.27 854 25.22 -6.1 21 53 -14.3 6.3
10:55 1025 30.27 854 25.22 -5.9 21.3 52 -14.2 6.4
11:00 1025 30.27 854 25.22 -5.9 21.4 52 -14.2 6.4
11:05 1025 30.27 854 25.22 -5.9 21.5 53 -14.1 6.7
11:10 1025 30.27 854 25.22 -6.2 20.8 55 -13.9 7
11:15 1025 30.27 854 25.22 -6.1 21.1 53 -14.1 6.6
11:20 1025 30.27 854 25.22 -6 21.2 52 -14.4 6.1
11:25 1025 30.27 854 25.22 -5.7 21.8 50 -14.5 5.9
11:30 1025 30.27 854 25.22 -5.4 22.3 50 -14.2 6.4
11:35 1025 30.27 854 25.22 -4.9 23.2 49 -14.1 6.7
11:40 1025 30.27 854 25.22 -4.9 23.2 48 -14.3 6.3
11:45 1025 30.27 854 25.22 -5.5 22.1 51 -14.1 6.6
11:50 1025 30.27 854 25.22 -5.9 21.4 52 -14.3 6.3
11:55 1025 30.27 854 25.22 -5.5 22.1 50 -14.3 6.3
12:00 1025 30.27 854 25.22 -5.3 22.5 50 -14.2 6.4
12:05 1025 30.27 854 25.22 -4.9 23.1 49 -14.2 6.4
12:10 1025 30.27 854 25.22 -5.2 22.6 50 -14 6.7
12:15 1025 30.27 854 25.22 -5 23 48 -14.4 6.1
12:20 1025 30.27 854 25.22 -4.9 23.1 48 -14.3 6.3
12:25 1025 30.27 854 25.22 -4.6 23.7 48 -14.1 6.7
12:30 1025 30.27 854 25.22 -4.4 24 47 -14.2 6.4
12:35 1025 30.27 854 25.22 -4.2 24.5 46 -14.2 6.5
12:40 1025 30.27 854 25.22 -4.6 23.7 45 -14.7 5.5
12:45 1025 30.27 854 25.22 -4.6 23.8 44 -15 5.1
12:50 1025 30.27 854 25.22 -4.7 23.5 46 -14.7 5.5
12:55 1025 30.27 854 25.22 -5.7 21.8 50 -14.6 5.7
13:00 1025 30.27 854 25.22 -7.2 19.1 51 -15.6 4
13:05 1025 30.27 855 25.25 -7 19.3 51 -15.5 4.1
13:10 1025 30.27 855 25.25 -8.1 17.4 54 -15.8 3.5
13:15 1025 30.27 855 25.25 -7.6 18.2 51 -16.1 3
13:20 1026 30.3 855 25.25 -6.8 19.7 50 -15.7 3.8
13:25 1026 30.3 855 25.25 -7.4 18.6 54 -15.1 4.7
13:30 1026 30.3 855 25.25 -7.2 19.1 51 -15.8 3.6
13:35 1026 30.3 855 25.25 -6.8 19.8 50 -15.6 3.9
13:40 1026 30.3 855 25.25 -7 19.4 52 -15.4 4.4
13:45 1026 30.3 855 25.25 -7.2 19.1 52 -15.5 4.2
13:50 1026 30.3 855 25.25 -7.1 19.1 53 -15.3 4.5
13:55 1026 30.3 855 25.25 -7.5 18.6 53 -15.6 4
14:00 1026 30.3 855 25.25 -7.5 18.5 52 -15.7 3.8
14:05 1026 30.3 855 25.25 -7.5 18.6 53 -15.5 4.2
14:10 1026 30.3 855 25.25 -7.4 18.6 53 -15.4 4.3
14:15 1026 30.3 855 25.25 -6.7 19.9 50 -15.4 4.2
14:20 1026 30.3 855 25.25 -6.6 20.2 50 -15.4 4.3
14:25 1026 30.3 855 25.25 -6.5 20.4 50 -15.3 4.4
14:30 1026 30.3 855 25.25 -7 19.4 52 -15.3 4.4
14:35 1026 30.3 855 25.25 -7.2 19.1 52 -15.4 4.3
14:40 1026 30.3 855 25.25 -7.2 19 51 -15.7 3.7
14:45 1026 30.3 855 25.25 -7.4 18.7 52 -15.7 3.7
14:50 1026 30.3 855 25.25 -7.2 19 53 -15.3 4.5
14:55 1026 30.3 856 25.28 -7.3 19 53 -15.4 4.3
15:00 1026 30.3 856 25.28 -7.5 18.5 52 -15.7 3.7
15:05 1027 30.33 856 25.28 -8.5 16.7 57 -15.7 3.8
15:10 1027 30.33 856 25.28 -8.4 16.9 54 -16.2 2.9
15:15 1027 30.33 856 25.28 -8.4 16.9 54 -16.2 2.9
15:20 1027 30.33 856 25.28 -9.2 15.5 58 -16.1 3.1
15:25 1027 30.33 856 25.28 -10.1 13.9 60 -16.5 2.3
15:30 1027 30.33 856 25.28 -10.7 12.8 62 -16.7 2
15:35 1027 30.33 856 25.28 -10.8 12.6 62 -16.8 1.8
15:40 1027 30.33 856 25.28 -10.6 13 61 -16.7 2
15:45 1027 30.33 856 25.28 -10.6 12.9 63 -16.5 2.4
15:50 1027 30.33 856 25.28 -10.9 12.3 63 -16.6 2.1
15:55 1027 30.33 856 25.28 -11.4 11.4 66 -16.6 2.1
16:00 1027 30.33 856 25.28 -11.6 11.2 66 -16.7 2
16:05 1027 30.33 856 25.28 -11.2 11.9 64 -16.6 2.1
16:10 1027 30.33 857 25.31 -11.4 11.6 65 -16.7 1.9
16:15 1027 30.33 857 25.31 -12.4 9.6 68 -17.1 1.2
16:20 1027 30.33 857 25.31 -12.8 8.9 69 -17.4 0.7
16:25 1027 30.33 856 25.28 -12.7 9.2 69 -17.3 0.9
16:30 1027 30.33 857 25.31 -12.1 10.3 67 -17 1.4
16:35 1027 30.33 857 25.31 -11.9 10.6 66 -17 1.5
16:40 1027 30.33 857 25.31 -12.4 9.6 69 -17 1.3
16:45 1027 30.33 857 25.31 -13.1 8.5 71 -17.2 1
16:50 1027 30.33 857 25.31 -13.3 8.1 72 -17.4 0.7
16:55 1027 30.33 857 25.31 -13.3 8.1 71 -17.5 0.4
17:00 1027 30.33 857 25.31 -13.1 8.4 73 -16.9 1.6
17:05 1027 30.33 857 25.31 -12.4 9.7 73 -16.3 2.7
17:10 1027 30.33 857 25.31 -11.8 10.8 70 -16.1 2.9
17:15 1027 30.33 857 25.31 -12 10.4 70 -16.4 2.4
17:20 1027 30.33 857 25.31 -12.6 9.3 71 -16.8 1.8
17:25 1027 30.33 857 25.31 -12.8 9 72 -16.8 1.8
17:30 1028 30.36 857 25.31 -12.4 9.6 73 -16.4 2.5
17:35 1028 30.36 857 25.31 -11.9 10.6 73 -15.8 3.6
17:40 1028 30.36 857 25.31 -11.4 11.5 71 -15.7 3.7
17:45 1028 30.36 857 25.31 -11.5 11.3 72 -15.6 3.8
17:50 1027 30.33 857 25.31 -11.8 10.8 73 -15.7 3.7
17:55 1028 30.36 857 25.31 -11.7 10.9 74 -15.5 4.1
18:00 1028 30.36 857 25.31 -11.4 11.4 73 -15.3 4.4
18:05 1028 30.36 857 25.31 -11 12.1 72 -15.1 4.8
18:10 1028 30.36 857 25.31 -10.6 12.9 70 -15 5
18:15 1028 30.36 857 25.31 -10.5 13.1 70 -14.9 5.2
18:20 1028 30.36 857 25.31 -10.4 13.3 68 -15.1 4.8
18:25 1028 30.36 857 25.31 -11.2 11.9 72 -15.3 4.5
18:30 1028 30.36 857 25.31 -11.1 11.9 72 -15.2 4.7
18:35 1028 30.36 857 25.31 -10.8 12.5 69 -15.5 4.2
18:40 1028 30.36 857 25.31 -11 12.2 69 -15.7 3.7
18:45 1028 30.36 857 25.31 -11.6 11.2 71 -15.9 3.4
18:50 1028 30.36 857 25.31 -11.8 10.8 73 -15.7 3.8
18:55 1028 30.36 857 25.31 -11.6 11.2 73 -15.6 4
19:00 1028 30.36 857 25.31 -11.4 11.5 73 -15.4 4.4
19:05 1028 30.36 857 25.31 -11.5 11.4 74 -15.3 4.5
19:10 1028 30.36 857 25.31 -11.3 11.7 71 -15.5 4.1
19:15 1028 30.36 857 25.31 -11.4 11.5 73 -15.3 4.4
19:20 1028 30.36 857 25.31 -10.9 12.3 68 -15.8 3.6
19:25 1028 30.36 857 25.31 -11.8 10.8 73 -15.7 3.7
19:30 1028 30.36 857 25.31 -11.5 11.3 71 -15.9 3.4
19:35 1028 30.36 857 25.31 -11.3 11.6 72 -15.5 4.1
19:40 1028 30.36 857 25.31 -11.3 11.7 70 -15.8 3.6
19:45 1028 30.36 857 25.31 -11.7 10.9 73 -15.7 3.8
19:50 1028 30.36 857 25.31 -11.5 11.2 73 -15.4 4.3
19:55 1028 30.36 857 25.31 -11.4 11.4 73 -15.3 4.5
20:00 1028 30.36 857 25.31 -11.6 11.1 73 -15.5 4.1
20:05 1028 30.36 857 25.31 -11.6 11.1 73 -15.6 4
20:10 1028 30.36 857 25.31 -11.5 11.4 73 -15.4 4.3
20:15 1028 30.36 857 25.31 -11.2 11.8 73 -15.2 4.6
20:20 1028 30.36 857 25.31 -11.1 12.1 72 -15.1 4.8
20:25 1028 30.36 858 25.34 -10.6 12.9 69 -15.2 4.7
20:30 1028 30.36 858 25.34 -10.7 12.7 72 -14.8 5.4
20:35 1028 30.36 858 25.34 -11 12.2 71 -15.3 4.4
20:40 1028 30.36 858 25.34 -11.3 11.7 74 -15.1 4.8
20:45 1028 30.36 858 25.34 -11.2 11.9 71 -15.5 4.1
20:50 1029 30.39 858 25.34 -11 12.2 68 -15.8 3.6
20:55 1029 30.39 858 25.34 -11.2 11.8 68 -15.9 3.3
21:00 1029 30.39 858 25.34 -11.7 11 72 -15.7 3.7
21:05 1029 30.39 858 25.34 -12 10.5 73 -15.8 3.5
21:10 1029 30.39 858 25.34 -12.1 10.2 73 -16.1 3
21:15 1029 30.39 858 25.34 -12.3 9.9 74 -16 3.2
21:20 1029 30.39 858 25.34 -12.5 9.5 74 -16.2 2.8
21:25 1029 30.39 858 25.34 -12.5 9.4 75 -16.1 3.1
21:30 1029 30.39 858 25.34 -12.6 9.3 75 -16.2 2.9
21:35 1029 30.39 858 25.34 -12.8 9 76 -16.2 2.9
21:40 1029 30.39 858 25.34 -12.8 9 77 -15.9 3.3
21:45 1029 30.39 858 25.34 -12.6 9.3 75 -16.2 2.8
21:50 1029 30.39 858 25.34 -12.6 9.3 76 -16 3.2
21:55 1029 30.39 858 25.34 -12.4 9.7 74 -16.1 3.1
22:00 1029 30.39 858 25.34 -12.5 9.6 74 -16.1 3
22:05 1029 30.39 858 25.34 -12.8 9.1 75 -16.3 2.6
22:10 1029 30.39 858 25.34 -13 8.5 76 -16.4 2.5
22:15 1029 30.39 858 25.34 -13 8.6 77 -16.2 2.9
22:20 1029 30.39 858 25.34 -12.5 9.5 75 -16.1 3.1
22:25 1029 30.39 858 25.34 -12.4 9.7 75 -16 3.2
22:30 1029 30.39 858 25.34 -12.1 10.2 74 -15.9 3.4
22:35 1029 30.39 858 25.34 -12 10.4 76 -15.4 4.2
22:40 1029 30.39 858 25.34 -11.7 11 74 -15.4 4.2
22:45 1029 30.39 858 25.34 -11.6 11.1 74 -15.3 4.5
22:50 1029 30.39 858 25.34 -11.4 11.5 73 -15.2 4.6
22:55 1029 30.39 858 25.34 -11.5 11.4 74 -15.3 4.5
23:00 1029 30.39 858 25.34 -11.8 10.8 74 -15.4 4.2
23:05 1029 30.39 858 25.34 -12 10.4 74 -15.7 3.8
23:10 1029 30.39 858 25.34 -12.1 10.3 75 -15.7 3.7
23:15 1029 30.39 858 25.34 -12.4 9.8 74 -16 3.2
23:20 1029 30.39 858 25.34 -12.6 9.4 77 -15.8 3.6
23:25 1029 30.39 858 25.34 -12.3 10 77 -15.6 4
23:30 1029 30.39 858 25.34 -11.5 11.2 72 -15.7 3.8
23:35 1029 30.39 858 25.34 -11.4 11.5 72 -15.4 4.2
23:40 1029 30.39 858 25.34 -11.6 11.1 72 -15.6 3.8
23:45 1029 30.39 858 25.34 -11.9 10.5 73 -15.8 3.5
23:50 1029 30.39 858 25.34 -12.1 10.2 74 -15.9 3.4
23:55 1029 30.39 858 25.34 -11.9 10.5 74 -15.7 3.8
24:00 1029 30.39 858 25.34 -11.5 11.4 73 -15.5 4.2